sensor_id;sensor_type;location;lat;lon;timestamp;pressure;altitude;pressure_sealevel;temperature
71463;BMP180;59266;52.608;13.260;2022-11-15T00:00:53;101082.00;;;4.50
71463;BMP180;59266;52.608;13.260;2022-11-15T00:03:25;101079.00;;;4.40
71463;BMP180;59266;52.608;13.260;2022-11-15T00:05:52;101074.00;;;4.50
71463;BMP180;59266;52.608;13.260;2022-11-15T00:08:18;101073.00;;;4.40
71463;BMP180;59266;52.608;13.260;2022-11-15T00:10:56;101073.00;;;4.40
71463;BMP180;59266;52.608;13.260;2022-11-15T00:13:23;101078.00;;;4.30
71463;BMP180;59266;52.608;13.260;2022-11-15T00:15:50;101060.00;;;4.30
71463;BMP180;59266;52.608;13.260;2022-11-15T00:18:17;101054.00;;;4.20
71463;BMP180;59266;52.608;13.260;2022-11-15T00:20:44;101045.00;;;4.30
71463;BMP180;59266;52.608;13.260;2022-11-15T00:23:10;101059.00;;;4.40
71463;BMP180;59266;52.608;13.260;2022-11-15T00:25:37;101052.00;;;4.30
71463;BMP180;59266;52.608;13.260;2022-11-15T00:28:03;101042.00;;;4.30
71463;BMP180;59266;52.608;13.260;2022-11-15T00:30:30;101049.00;;;4.50
71463;BMP180;59266;52.608;13.260;2022-11-15T00:33:01;101044.00;;;4.40
71463;BMP180;59266;52.608;13.260;2022-11-15T00:35:27;101046.00;;;4.40
71463;BMP180;59266;52.608;13.260;2022-11-15T00:37:54;101033.00;;;4.50
71463;BMP180;59266;52.608;13.260;2022-11-15T00:40:21;101040.00;;;4.50
71463;BMP180;59266;52.608;13.260;2022-11-15T00:42:47;101031.00;;;4.50
71463;BMP180;59266;52.608;13.260;2022-11-15T00:45:14;101039.00;;;4.70
71463;BMP180;59266;52.608;13.260;2022-11-15T00:47:44;101033.00;;;4.50
71463;BMP180;59266;52.608;13.260;2022-11-15T00:50:11;101030.00;;;4.60
71463;BMP180;59266;52.608;13.260;2022-11-15T00:52:41;101029.00;;;4.50
71463;BMP180;59266;52.608;13.260;2022-11-15T00:55:12;101026.00;;;4.50
71463;BMP180;59266;52.608;13.260;2022-11-15T00:57:39;101028.00;;;4.50
71463;BMP180;59266;52.608;13.260;2022-11-15T01:00:06;101037.00;;;4.50
71463;BMP180;59266;52.608;13.260;2022-11-15T01:02:34;101021.00;;;4.30
71463;BMP180;59266;52.608;13.260;2022-11-15T01:05:00;101024.00;;;4.30
71463;BMP180;59266;52.608;13.260;2022-11-15T01:07:27;101028.00;;;4.20
71463;BMP180;59266;52.608;13.260;2022-11-15T01:09:53;101015.00;;;4.20
71463;BMP180;59266;52.608;13.260;2022-11-15T01:12:20;101005.00;;;4.20
71463;BMP180;59266;52.608;13.260;2022-11-15T01:14:46;101012.00;;;4.20
71463;BMP180;59266;52.608;13.260;2022-11-15T01:17:13;101009.00;;;4.10
71463;BMP180;59266;52.608;13.260;2022-11-15T01:19:41;101009.00;;;4.00
71463;BMP180;59266;52.608;13.260;2022-11-15T01:22:08;101014.00;;;4.00
71463;BMP180;59266;52.608;13.260;2022-11-15T01:24:34;101004.00;;;3.90
71463;BMP180;59266;52.608;13.260;2022-11-15T01:27:00;100992.00;;;4.00
71463;BMP180;59266;52.608;13.260;2022-11-15T01:29:27;100996.00;;;4.00
71463;BMP180;59266;52.608;13.260;2022-11-15T01:31:55;100995.00;;;4.00
71463;BMP180;59266;52.608;13.260;2022-11-15T01:34:21;100994.00;;;4.00
71463;BMP180;59266;52.608;13.260;2022-11-15T01:36:48;100990.00;;;3.90
71463;BMP180;59266;52.608;13.260;2022-11-15T01:39:15;100987.00;;;4.00
71463;BMP180;59266;52.608;13.260;2022-11-15T01:41:41;100976.00;;;4.00
71463;BMP180;59266;52.608;13.260;2022-11-15T01:46:58;100976.00;;;4.00
71463;BMP180;59266;52.608;13.260;2022-11-15T01:49:26;100962.00;;;3.80
71463;BMP180;59266;52.608;13.260;2022-11-15T01:51:54;100968.00;;;3.90
71463;BMP180;59266;52.608;13.260;2022-11-15T01:54:23;100952.00;;;4.00
71463;BMP180;59266;52.608;13.260;2022-11-15T01:56:53;100950.00;;;3.90
71463;BMP180;59266;52.608;13.260;2022-11-15T01:59:21;100948.00;;;3.80
71463;BMP180;59266;52.608;13.260;2022-11-15T02:01:48;100953.00;;;3.90
71463;BMP180;59266;52.608;13.260;2022-11-15T02:04:26;100958.00;;;3.90
71463;BMP180;59266;52.608;13.260;2022-11-15T02:06:53;100959.00;;;4.00
71463;BMP180;59266;52.608;13.260;2022-11-15T02:09:20;100949.00;;;4.00
71463;BMP180;59266;52.608;13.260;2022-11-15T02:11:47;100951.00;;;3.90
71463;BMP180;59266;52.608;13.260;2022-11-15T02:14:15;100946.00;;;3.90
71463;BMP180;59266;52.608;13.260;2022-11-15T02:22:47;100949.00;;;3.70
71463;BMP180;59266;52.608;13.260;2022-11-15T02:25:37;100948.00;;;3.70
71463;BMP180;59266;52.608;13.260;2022-11-15T02:34:33;100956.00;;;3.70
71463;BMP180;59266;52.608;13.260;2022-11-15T02:39:46;100948.00;;;3.60
71463;BMP180;59266;52.608;13.260;2022-11-15T02:42:20;100935.00;;;3.70
71463;BMP180;59266;52.608;13.260;2022-11-15T02:45:09;100930.00;;;3.70
71463;BMP180;59266;52.608;13.260;2022-11-15T02:47:43;100932.00;;;3.50
71463;BMP180;59266;52.608;13.260;2022-11-15T02:50:12;100931.00;;;3.60
71463;BMP180;59266;52.608;13.260;2022-11-15T02:52:39;100932.00;;;3.70
71463;BMP180;59266;52.608;13.260;2022-11-15T02:55:26;100933.00;;;3.50
71463;BMP180;59266;52.608;13.260;2022-11-15T03:00:59;100935.00;;;3.50
71463;BMP180;59266;52.608;13.260;2022-11-15T03:03:41;100928.00;;;3.50
71463;BMP180;59266;52.608;13.260;2022-11-15T03:09:04;100932.00;;;3.40
71463;BMP180;59266;52.608;13.260;2022-11-15T03:11:37;100923.00;;;3.50
71463;BMP180;59266;52.608;13.260;2022-11-15T03:16:48;100924.00;;;3.50
71463;BMP180;59266;52.608;13.260;2022-11-15T03:19:29;100915.00;;;3.30
71463;BMP180;59266;52.608;13.260;2022-11-15T03:21:59;100928.00;;;3.40
71463;BMP180;59266;52.608;13.260;2022-11-15T03:24:28;100925.00;;;3.40
71463;BMP180;59266;52.608;13.260;2022-11-15T03:26:59;100923.00;;;3.30
71463;BMP180;59266;52.608;13.260;2022-11-15T03:29:31;100918.00;;;3.40
71463;BMP180;59266;52.608;13.260;2022-11-15T03:32:09;100929.00;;;3.30
71463;BMP180;59266;52.608;13.260;2022-11-15T03:34:45;100920.00;;;3.20
71463;BMP180;59266;52.608;13.260;2022-11-15T03:37:15;100916.00;;;3.30
71463;BMP180;59266;52.608;13.260;2022-11-15T03:39:43;100921.00;;;3.30
71463;BMP180;59266;52.608;13.260;2022-11-15T03:42:20;100922.00;;;3.30
71463;BMP180;59266;52.608;13.260;2022-11-15T03:45:16;100919.00;;;3.30
71463;BMP180;59266;52.608;13.260;2022-11-15T03:50:17;100916.00;;;3.30
71463;BMP180;59266;52.608;13.260;2022-11-15T03:52:46;100911.00;;;3.30
71463;BMP180;59266;52.608;13.260;2022-11-15T03:55:16;100912.00;;;3.30
71463;BMP180;59266;52.608;13.260;2022-11-15T03:57:43;100907.00;;;3.30
71463;BMP180;59266;52.608;13.260;2022-11-15T04:00:10;100904.00;;;3.30
71463;BMP180;59266;52.608;13.260;2022-11-15T04:02:37;100907.00;;;3.30
71463;BMP180;59266;52.608;13.260;2022-11-15T04:05:03;100905.00;;;3.30
71463;BMP180;59266;52.608;13.260;2022-11-15T04:07:30;100902.00;;;3.30
71463;BMP180;59266;52.608;13.260;2022-11-15T04:09:57;100899.00;;;3.20
71463;BMP180;59266;52.608;13.260;2022-11-15T04:15:11;100899.00;;;3.30
71463;BMP180;59266;52.608;13.260;2022-11-15T04:20:15;100912.00;;;3.30
71463;BMP180;59266;52.608;13.260;2022-11-15T04:23:02;100895.00;;;3.40
71463;BMP180;59266;52.608;13.260;2022-11-15T04:25:51;100902.00;;;3.40
71463;BMP180;59266;52.608;13.260;2022-11-15T04:28:18;100897.00;;;3.30
71463;BMP180;59266;52.608;13.260;2022-11-15T04:30:45;100899.00;;;3.30
71463;BMP180;59266;52.608;13.260;2022-11-15T04:33:11;100910.00;;;3.40
71463;BMP180;59266;52.608;13.260;2022-11-15T04:35:38;100902.00;;;3.30
71463;BMP180;59266;52.608;13.260;2022-11-15T04:38:06;100896.00;;;3.30
71463;BMP180;59266;52.608;13.260;2022-11-15T04:40:34;100894.00;;;3.30
71463;BMP180;59266;52.608;13.260;2022-11-15T04:43:01;100887.00;;;3.30
71463;BMP180;59266;52.608;13.260;2022-11-15T04:45:29;100889.00;;;3.40
71463;BMP180;59266;52.608;13.260;2022-11-15T04:47:56;100893.00;;;3.30
71463;BMP180;59266;52.608;13.260;2022-11-15T04:50:22;100883.00;;;3.30
71463;BMP180;59266;52.608;13.260;2022-11-15T04:52:53;100881.00;;;3.30
71463;BMP180;59266;52.608;13.260;2022-11-15T04:55:20;100866.00;;;3.30
71463;BMP180;59266;52.608;13.260;2022-11-15T04:57:46;100888.00;;;3.30
71463;BMP180;59266;52.608;13.260;2022-11-15T05:00:15;100891.00;;;3.30
71463;BMP180;59266;52.608;13.260;2022-11-15T05:02:42;100884.00;;;3.30
71463;BMP180;59266;52.608;13.260;2022-11-15T05:05:27;100889.00;;;3.30
71463;BMP180;59266;52.608;13.260;2022-11-15T05:07:53;100892.00;;;3.30
71463;BMP180;59266;52.608;13.260;2022-11-15T05:10:20;100891.00;;;3.20
71463;BMP180;59266;52.608;13.260;2022-11-15T05:12:46;100889.00;;;3.30
71463;BMP180;59266;52.608;13.260;2022-11-15T05:15:13;100888.00;;;3.20
71463;BMP180;59266;52.608;13.260;2022-11-15T05:17:40;100888.00;;;3.20
71463;BMP180;59266;52.608;13.260;2022-11-15T05:20:07;100893.00;;;3.20
71463;BMP180;59266;52.608;13.260;2022-11-15T05:22:33;100893.00;;;3.20
71463;BMP180;59266;52.608;13.260;2022-11-15T05:25:00;100887.00;;;3.20
71463;BMP180;59266;52.608;13.260;2022-11-15T05:27:26;100889.00;;;3.30
71463;BMP180;59266;52.608;13.260;2022-11-15T05:29:53;100893.00;;;3.30
71463;BMP180;59266;52.608;13.260;2022-11-15T05:32:20;100883.00;;;3.20
71463;BMP180;59266;52.608;13.260;2022-11-15T05:34:46;100878.00;;;3.20
71463;BMP180;59266;52.608;13.260;2022-11-15T05:37:13;100878.00;;;3.20
71463;BMP180;59266;52.608;13.260;2022-11-15T05:39:40;100888.00;;;3.10
71463;BMP180;59266;52.608;13.260;2022-11-15T05:42:12;100873.00;;;3.10
71463;BMP180;59266;52.608;13.260;2022-11-15T05:44:43;100883.00;;;3.20
71463;BMP180;59266;52.608;13.260;2022-11-15T05:47:13;100886.00;;;3.10
71463;BMP180;59266;52.608;13.260;2022-11-15T05:49:41;100887.00;;;3.10
71463;BMP180;59266;52.608;13.260;2022-11-15T05:52:11;100877.00;;;3.20
71463;BMP180;59266;52.608;13.260;2022-11-15T05:54:39;100879.00;;;3.10
71463;BMP180;59266;52.608;13.260;2022-11-15T05:57:06;100892.00;;;3.10
71463;BMP180;59266;52.608;13.260;2022-11-15T05:59:33;100894.00;;;3.20
71463;BMP180;59266;52.608;13.260;2022-11-15T06:02:00;100892.00;;;3.20
71463;BMP180;59266;52.608;13.260;2022-11-15T06:04:27;100879.00;;;3.20
71463;BMP180;59266;52.608;13.260;2022-11-15T06:06:53;100886.00;;;3.10
71463;BMP180;59266;52.608;13.260;2022-11-15T06:09:20;100896.00;;;3.00
71463;BMP180;59266;52.608;13.260;2022-11-15T06:11:46;100900.00;;;3.10
71463;BMP180;59266;52.608;13.260;2022-11-15T06:14:14;100894.00;;;3.10
71463;BMP180;59266;52.608;13.260;2022-11-15T06:16:40;100892.00;;;3.10
71463;BMP180;59266;52.608;13.260;2022-11-15T06:19:07;100892.00;;;3.10
71463;BMP180;59266;52.608;13.260;2022-11-15T06:21:33;100899.00;;;3.10
71463;BMP180;59266;52.608;13.260;2022-11-15T06:24:00;100902.00;;;3.00
71463;BMP180;59266;52.608;13.260;2022-11-15T06:26:26;100898.00;;;3.10
71463;BMP180;59266;52.608;13.260;2022-11-15T06:28:53;100899.00;;;3.10
71463;BMP180;59266;52.608;13.260;2022-11-15T06:31:19;100899.00;;;3.10
71463;BMP180;59266;52.608;13.260;2022-11-15T06:33:46;100894.00;;;3.10
71463;BMP180;59266;52.608;13.260;2022-11-15T06:36:12;100893.00;;;3.20
71463;BMP180;59266;52.608;13.260;2022-11-15T06:38:44;100893.00;;;3.10
71463;BMP180;59266;52.608;13.260;2022-11-15T06:41:12;100887.00;;;3.20
71463;BMP180;59266;52.608;13.260;2022-11-15T06:43:39;100893.00;;;3.10
71463;BMP180;59266;52.608;13.260;2022-11-15T06:46:07;100895.00;;;3.20
71463;BMP180;59266;52.608;13.260;2022-11-15T06:48:34;100898.00;;;3.10
71463;BMP180;59266;52.608;13.260;2022-11-15T06:51:02;100907.00;;;3.20
71463;BMP180;59266;52.608;13.260;2022-11-15T06:53:29;100904.00;;;3.20
71463;BMP180;59266;52.608;13.260;2022-11-15T06:56:01;100907.00;;;3.30
71463;BMP180;59266;52.608;13.260;2022-11-15T06:58:28;100912.00;;;3.30
71463;BMP180;59266;52.608;13.260;2022-11-15T07:01:06;100914.00;;;3.40
71463;BMP180;59266;52.608;13.260;2022-11-15T07:03:38;100915.00;;;3.40
71463;BMP180;59266;52.608;13.260;2022-11-15T07:06:05;100915.00;;;3.40
71463;BMP180;59266;52.608;13.260;2022-11-15T07:08:33;100923.00;;;3.40
71463;BMP180;59266;52.608;13.260;2022-11-15T07:11:07;100917.00;;;3.50
71463;BMP180;59266;52.608;13.260;2022-11-15T07:13:36;100910.00;;;3.50
71463;BMP180;59266;52.608;13.260;2022-11-15T07:16:05;100927.00;;;3.60
71463;BMP180;59266;52.608;13.260;2022-11-15T07:18:37;100923.00;;;3.60
71463;BMP180;59266;52.608;13.260;2022-11-15T07:21:04;100921.00;;;3.60
71463;BMP180;59266;52.608;13.260;2022-11-15T07:23:31;100937.00;;;3.70
71463;BMP180;59266;52.608;13.260;2022-11-15T07:25:59;100926.00;;;3.70
71463;BMP180;59266;52.608;13.260;2022-11-15T07:28:26;100924.00;;;3.80
71463;BMP180;59266;52.608;13.260;2022-11-15T07:30:53;100933.00;;;3.80
71463;BMP180;59266;52.608;13.260;2022-11-15T07:33:20;100928.00;;;3.90
71463;BMP180;59266;52.608;13.260;2022-11-15T07:35:46;100935.00;;;4.00
71463;BMP180;59266;52.608;13.260;2022-11-15T07:38:16;100936.00;;;4.50
71463;BMP180;59266;52.608;13.260;2022-11-15T07:40:46;100928.00;;;4.70
71463;BMP180;59266;52.608;13.260;2022-11-15T07:43:13;100909.00;;;4.80
71463;BMP180;59266;52.608;13.260;2022-11-15T07:45:42;100917.00;;;5.60
71463;BMP180;59266;52.608;13.260;2022-11-15T07:48:09;100919.00;;;7.10
71463;BMP180;59266;52.608;13.260;2022-11-15T07:50:35;100920.00;;;8.10
71463;BMP180;59266;52.608;13.260;2022-11-15T07:53:01;100910.00;;;10.10
71463;BMP180;59266;52.608;13.260;2022-11-15T07:55:28;100911.00;;;11.50
71463;BMP180;59266;52.608;13.260;2022-11-15T07:58:09;100923.00;;;9.10
71463;BMP180;59266;52.608;13.260;2022-11-15T08:00:37;100923.00;;;8.30
71463;BMP180;59266;52.608;13.260;2022-11-15T08:03:08;100916.00;;;7.50
71463;BMP180;59266;52.608;13.260;2022-11-15T08:05:36;100917.00;;;7.10
71463;BMP180;59266;52.608;13.260;2022-11-15T08:08:04;100904.00;;;6.90
71463;BMP180;59266;52.608;13.260;2022-11-15T08:10:31;100911.00;;;6.60
71463;BMP180;59266;52.608;13.260;2022-11-15T08:13:06;100908.00;;;6.70
71463;BMP180;59266;52.608;13.260;2022-11-15T08:15:33;100897.00;;;6.70
71463;BMP180;59266;52.608;13.260;2022-11-15T08:18:03;100909.00;;;6.70
71463;BMP180;59266;52.608;13.260;2022-11-15T08:20:30;100920.00;;;6.70
71463;BMP180;59266;52.608;13.260;2022-11-15T08:22:58;100907.00;;;6.70
71463;BMP180;59266;52.608;13.260;2022-11-15T08:25:26;100902.00;;;6.70
71463;BMP180;59266;52.608;13.260;2022-11-15T08:27:55;100908.00;;;6.60
71463;BMP180;59266;52.608;13.260;2022-11-15T08:30:22;100900.00;;;6.60
71463;BMP180;59266;52.608;13.260;2022-11-15T08:32:50;100907.00;;;6.70
71463;BMP180;59266;52.608;13.260;2022-11-15T08:35:17;100913.00;;;6.80
71463;BMP180;59266;52.608;13.260;2022-11-15T08:37:44;100910.00;;;6.90
71463;BMP180;59266;52.608;13.260;2022-11-15T08:40:10;100915.00;;;6.90
71463;BMP180;59266;52.608;13.260;2022-11-15T08:42:37;100913.00;;;7.10
71463;BMP180;59266;52.608;13.260;2022-11-15T08:45:04;100906.00;;;7.20
71463;BMP180;59266;52.608;13.260;2022-11-15T08:47:30;100906.00;;;7.20
71463;BMP180;59266;52.608;13.260;2022-11-15T08:49:57;100901.00;;;7.30
71463;BMP180;59266;52.608;13.260;2022-11-15T08:52:23;100908.00;;;7.40
71463;BMP180;59266;52.608;13.260;2022-11-15T08:54:50;100909.00;;;7.60
71463;BMP180;59266;52.608;13.260;2022-11-15T08:57:17;100910.00;;;7.70
71463;BMP180;59266;52.608;13.260;2022-11-15T08:59:46;100905.00;;;7.80
71463;BMP180;59266;52.608;13.260;2022-11-15T09:02:13;100894.00;;;7.90
71463;BMP180;59266;52.608;13.260;2022-11-15T09:04:43;100897.00;;;8.00
71463;BMP180;59266;52.608;13.260;2022-11-15T09:07:11;100900.00;;;8.10
71463;BMP180;59266;52.608;13.260;2022-11-15T09:09:38;100902.00;;;8.20
71463;BMP180;59266;52.608;13.260;2022-11-15T09:12:05;100899.00;;;8.30
71463;BMP180;59266;52.608;13.260;2022-11-15T09:14:32;100898.00;;;8.50
71463;BMP180;59266;52.608;13.260;2022-11-15T09:16:59;100898.00;;;8.50
71463;BMP180;59266;52.608;13.260;2022-11-15T09:19:25;100890.00;;;8.70
71463;BMP180;59266;52.608;13.260;2022-11-15T09:21:52;100892.00;;;8.80
71463;BMP180;59266;52.608;13.260;2022-11-15T09:24:18;100899.00;;;8.90
71463;BMP180;59266;52.608;13.260;2022-11-15T09:26:45;100892.00;;;9.00
71463;BMP180;59266;52.608;13.260;2022-11-15T09:29:11;100889.00;;;9.10
71463;BMP180;59266;52.608;13.260;2022-11-15T09:31:38;100891.00;;;9.20
71463;BMP180;59266;52.608;13.260;2022-11-15T09:34:05;100903.00;;;9.20
71463;BMP180;59266;52.608;13.260;2022-11-15T09:36:31;100901.00;;;9.30
71463;BMP180;59266;52.608;13.260;2022-11-15T09:38:58;100901.00;;;9.40
71463;BMP180;59266;52.608;13.260;2022-11-15T09:41:54;100905.00;;;9.50
71463;BMP180;59266;52.608;13.260;2022-11-15T09:47:49;100903.00;;;9.70
71463;BMP180;59266;52.608;13.260;2022-11-15T09:50:31;100901.00;;;9.80
71463;BMP180;59266;52.608;13.260;2022-11-15T09:52:58;100898.00;;;9.90
71463;BMP180;59266;52.608;13.260;2022-11-15T09:55:40;100895.00;;;10.00
71463;BMP180;59266;52.608;13.260;2022-11-15T09:58:22;100896.00;;;10.00
71463;BMP180;59266;52.608;13.260;2022-11-15T10:00:51;100896.00;;;10.10
71463;BMP180;59266;52.608;13.260;2022-11-15T10:03:27;100893.00;;;10.10
71463;BMP180;59266;52.608;13.260;2022-11-15T10:05:58;100881.00;;;10.20
71463;BMP180;59266;52.608;13.260;2022-11-15T10:11:11;100884.00;;;10.40
71463;BMP180;59266;52.608;13.260;2022-11-15T10:14:02;100871.00;;;10.50
71463;BMP180;59266;52.608;13.260;2022-11-15T10:27:35;100849.00;;;11.00
71463;BMP180;59266;52.608;13.260;2022-11-15T10:30:04;100851.00;;;11.00
71463;BMP180;59266;52.608;13.260;2022-11-15T10:32:34;100835.00;;;11.10
71463;BMP180;59266;52.608;13.260;2022-11-15T10:35:16;100835.00;;;11.20
71463;BMP180;59266;52.608;13.260;2022-11-15T10:37:43;100836.00;;;11.50
71463;BMP180;59266;52.608;13.260;2022-11-15T10:40:19;100828.00;;;11.50
71463;BMP180;59266;52.608;13.260;2022-11-15T10:42:46;100831.00;;;11.70
71463;BMP180;59266;52.608;13.260;2022-11-15T10:45:30;100832.00;;;11.70
71463;BMP180;59266;52.608;13.260;2022-11-15T10:50:49;100820.00;;;11.70
71463;BMP180;59266;52.608;13.260;2022-11-15T10:55:50;100797.00;;;12.10
71463;BMP180;59266;52.608;13.260;2022-11-15T10:58:36;100800.00;;;14.10
71463;BMP180;59266;52.608;13.260;2022-11-15T11:01:12;100797.00;;;15.80
71463;BMP180;59266;52.608;13.260;2022-11-15T11:03:40;100794.00;;;16.60
71463;BMP180;59266;52.608;13.260;2022-11-15T11:06:16;100786.00;;;18.40
71463;BMP180;59266;52.608;13.260;2022-11-15T11:09:00;100784.00;;;20.10
71463;BMP180;59266;52.608;13.260;2022-11-15T11:11:46;100787.00;;;19.60
71463;BMP180;59266;52.608;13.260;2022-11-15T11:14:19;100782.00;;;20.30
71463;BMP180;59266;52.608;13.260;2022-11-15T11:16:50;100782.00;;;21.60
71463;BMP180;59266;52.608;13.260;2022-11-15T11:22:05;100785.00;;;21.80
71463;BMP180;59266;52.608;13.260;2022-11-15T11:24:43;100795.00;;;22.00
71463;BMP180;59266;52.608;13.260;2022-11-15T11:27:28;100787.00;;;22.20
71463;BMP180;59266;52.608;13.260;2022-11-15T11:30:19;100785.00;;;23.90
71463;BMP180;59266;52.608;13.260;2022-11-15T11:35:52;100778.00;;;23.20
71463;BMP180;59266;52.608;13.260;2022-11-15T11:38:33;100775.00;;;24.40
71463;BMP180;59266;52.608;13.260;2022-11-15T11:41:15;100778.00;;;23.50
71463;BMP180;59266;52.608;13.260;2022-11-15T11:44:24;100782.00;;;23.90
71463;BMP180;59266;52.608;13.260;2022-11-15T11:46:56;100776.00;;;24.60
71463;BMP180;59266;52.608;13.260;2022-11-15T11:49:30;100780.00;;;24.30
71463;BMP180;59266;52.608;13.260;2022-11-15T11:52:07;100770.00;;;23.00
71463;BMP180;59266;52.608;13.260;2022-11-15T11:54:47;100777.00;;;23.20
71463;BMP180;59266;52.608;13.260;2022-11-15T11:57:31;100771.00;;;23.90
71463;BMP180;59266;52.608;13.260;2022-11-15T12:00:22;100772.00;;;24.10
71463;BMP180;59266;52.608;13.260;2022-11-15T12:05:32;100759.00;;;22.20
71463;BMP180;59266;52.608;13.260;2022-11-15T12:08:15;100759.00;;;22.00
71463;BMP180;59266;52.608;13.260;2022-11-15T12:10:48;100766.00;;;20.90
71463;BMP180;59266;52.608;13.260;2022-11-15T12:13:19;100763.00;;;20.30
71463;BMP180;59266;52.608;13.260;2022-11-15T12:16:08;100765.00;;;19.00
71463;BMP180;59266;52.608;13.260;2022-11-15T12:18:36;100762.00;;;19.00
71463;BMP180;59266;52.608;13.260;2022-11-15T12:21:08;100756.00;;;19.30
71463;BMP180;59266;52.608;13.260;2022-11-15T12:23:48;100759.00;;;18.50
71463;BMP180;59266;52.608;13.260;2022-11-15T12:26:20;100751.00;;;19.00
71463;BMP180;59266;52.608;13.260;2022-11-15T12:28:52;100748.00;;;18.30
71463;BMP180;59266;52.608;13.260;2022-11-15T12:31:38;100752.00;;;18.20
71463;BMP180;59266;52.608;13.260;2022-11-15T12:34:35;100752.00;;;18.10
71463;BMP180;59266;52.608;13.260;2022-11-15T12:40:24;100750.00;;;17.70
71463;BMP180;59266;52.608;13.260;2022-11-15T12:45:37;100744.00;;;18.80
71463;BMP180;59266;52.608;13.260;2022-11-15T12:58:54;100727.00;;;18.10
71463;BMP180;59266;52.608;13.260;2022-11-15T13:06:53;100735.00;;;17.60
71463;BMP180;59266;52.608;13.260;2022-11-15T13:12:04;100733.00;;;18.10
71463;BMP180;59266;52.608;13.260;2022-11-15T13:20:02;100729.00;;;18.30
71463;BMP180;59266;52.608;13.260;2022-11-15T13:22:43;100724.00;;;18.30
71463;BMP180;59266;52.608;13.260;2022-11-15T13:25:45;100723.00;;;18.10
71463;BMP180;59266;52.608;13.260;2022-11-15T13:33:16;100719.00;;;17.60
71463;BMP180;59266;52.608;13.260;2022-11-15T13:35:47;100712.00;;;17.10
71463;BMP180;59266;52.608;13.260;2022-11-15T13:38:19;100715.00;;;17.20
71463;BMP180;59266;52.608;13.260;2022-11-15T13:40:52;100712.00;;;16.90
71463;BMP180;59266;52.608;13.260;2022-11-15T13:48:31;100712.00;;;16.90
71463;BMP180;59266;52.608;13.260;2022-11-15T13:51:02;100712.00;;;16.90
71463;BMP180;59266;52.608;13.260;2022-11-15T13:53:32;100720.00;;;16.80
71463;BMP180;59266;52.608;13.260;2022-11-15T13:55:59;100718.00;;;16.60
71463;BMP180;59266;52.608;13.260;2022-11-15T13:58:26;100711.00;;;16.50
71463;BMP180;59266;52.608;13.260;2022-11-15T14:01:01;100716.00;;;16.10
71463;BMP180;59266;52.608;13.260;2022-11-15T14:03:30;100711.00;;;16.10
71463;BMP180;59266;52.608;13.260;2022-11-15T14:06:12;100709.00;;;15.90
71463;BMP180;59266;52.608;13.260;2022-11-15T14:08:39;100710.00;;;15.90
71463;BMP180;59266;52.608;13.260;2022-11-15T14:11:17;100710.00;;;15.70
71463;BMP180;59266;52.608;13.260;2022-11-15T14:14:11;100708.00;;;15.50
71463;BMP180;59266;52.608;13.260;2022-11-15T14:16:41;100712.00;;;15.00
71463;BMP180;59266;52.608;13.260;2022-11-15T14:19:33;100713.00;;;14.80
71463;BMP180;59266;52.608;13.260;2022-11-15T14:22:14;100709.00;;;14.70
71463;BMP180;59266;52.608;13.260;2022-11-15T14:24:44;100710.00;;;14.30
71463;BMP180;59266;52.608;13.260;2022-11-15T14:27:23;100718.00;;;14.30
71463;BMP180;59266;52.608;13.260;2022-11-15T14:29:51;100706.00;;;14.10
71463;BMP180;59266;52.608;13.260;2022-11-15T14:32:20;100721.00;;;13.90
71463;BMP180;59266;52.608;13.260;2022-11-15T14:34:48;100713.00;;;14.00
71463;BMP180;59266;52.608;13.260;2022-11-15T14:37:24;100709.00;;;13.90
71463;BMP180;59266;52.608;13.260;2022-11-15T14:39:51;100709.00;;;13.80
71463;BMP180;59266;52.608;13.260;2022-11-15T14:42:20;100716.00;;;13.60
71463;BMP180;59266;52.608;13.260;2022-11-15T14:44:47;100701.00;;;13.50
71463;BMP180;59266;52.608;13.260;2022-11-15T14:47:13;100701.00;;;13.30
71463;BMP180;59266;52.608;13.260;2022-11-15T14:49:40;100697.00;;;13.40
71463;BMP180;59266;52.608;13.260;2022-11-15T14:52:26;100700.00;;;13.20
71463;BMP180;59266;52.608;13.260;2022-11-15T14:54:59;100700.00;;;13.10
71463;BMP180;59266;52.608;13.260;2022-11-15T14:57:25;100695.00;;;12.90
71463;BMP180;59266;52.608;13.260;2022-11-15T14:59:52;100691.00;;;12.40
71463;BMP180;59266;52.608;13.260;2022-11-15T15:02:21;100691.00;;;12.40
71463;BMP180;59266;52.608;13.260;2022-11-15T15:04:48;100680.00;;;12.30
71463;BMP180;59266;52.608;13.260;2022-11-15T15:07:15;100683.00;;;12.30
71463;BMP180;59266;52.608;13.260;2022-11-15T15:09:42;100674.00;;;11.80
71463;BMP180;59266;52.608;13.260;2022-11-15T15:12:15;100671.00;;;12.10
71463;BMP180;59266;52.608;13.260;2022-11-15T15:14:41;100676.00;;;11.90
71463;BMP180;59266;52.608;13.260;2022-11-15T15:17:08;100674.00;;;11.70
71463;BMP180;59266;52.608;13.260;2022-11-15T15:19:34;100675.00;;;11.70
71463;BMP180;59266;52.608;13.260;2022-11-15T15:22:01;100676.00;;;11.60
71463;BMP180;59266;52.608;13.260;2022-11-15T15:24:27;100670.00;;;11.50
71463;BMP180;59266;52.608;13.260;2022-11-15T15:26:54;100662.00;;;11.50
71463;BMP180;59266;52.608;13.260;2022-11-15T15:29:20;100666.00;;;11.30
71463;BMP180;59266;52.608;13.260;2022-11-15T15:31:47;100660.00;;;11.10
71463;BMP180;59266;52.608;13.260;2022-11-15T15:34:13;100667.00;;;11.10
71463;BMP180;59266;52.608;13.260;2022-11-15T15:36:42;100662.00;;;10.90
71463;BMP180;59266;52.608;13.260;2022-11-15T15:39:10;100669.00;;;10.90
71463;BMP180;59266;52.608;13.260;2022-11-15T15:41:37;100659.00;;;10.80
71463;BMP180;59266;52.608;13.260;2022-11-15T15:44:03;100663.00;;;10.80
71463;BMP180;59266;52.608;13.260;2022-11-15T15:46:30;100661.00;;;10.70
71463;BMP180;59266;52.608;13.260;2022-11-15T15:48:56;100663.00;;;10.50
71463;BMP180;59266;52.608;13.260;2022-11-15T15:51:23;100664.00;;;10.50
71463;BMP180;59266;52.608;13.260;2022-11-15T15:53:49;100663.00;;;10.50
71463;BMP180;59266;52.608;13.260;2022-11-15T15:56:17;100663.00;;;10.40